sensor_id;sensor_type;location;lat;lon;timestamp;P1;P2;P0
21358;PMS7003;13506;50.852;20.632;2022-07-23T00:00:23;43.25;36.00;24.50
21358;PMS7003;13506;50.852;20.632;2022-07-23T00:03:02;47.00;37.75;24.75
21358;PMS7003;13506;50.852;20.632;2022-07-23T00:05:31;42.00;35.25;24.00
21358;PMS7003;13506;50.852;20.632;2022-07-23T00:07:58;49.00;39.75;27.00
21358;PMS7003;13506;50.852;20.632;2022-07-23T00:10:26;47.75;37.00;25.25
21358;PMS7003;13506;50.852;20.632;2022-07-23T00:12:54;46.00;37.00;24.75
21358;PMS7003;13506;50.852;20.632;2022-07-23T00:15:21;49.50;41.00;27.00
21358;PMS7003;13506;50.852;20.632;2022-07-23T00:17:48;48.75;36.00;25.00
21358;PMS7003;13506;50.852;20.632;2022-07-23T00:20:17;46.00;37.00;24.00
21358;PMS7003;13506;50.852;20.632;2022-07-23T00:22:47;47.50;37.75;25.00
21358;PMS7003;13506;50.852;20.632;2022-07-23T00:25:15;47.00;38.00;24.25
21358;PMS7003;13506;50.852;20.632;2022-07-23T00:27:43;43.50;35.75;23.75
21358;PMS7003;13506;50.852;20.632;2022-07-23T00:30:11;45.00;37.50;25.00
21358;PMS7003;13506;50.852;20.632;2022-07-23T00:32:48;44.25;35.75;24.50
21358;PMS7003;13506;50.852;20.632;2022-07-23T00:35:19;44.00;37.25;25.50
21358;PMS7003;13506;50.852;20.632;2022-07-23T00:37:49;46.25;37.00;23.75
21358;PMS7003;13506;50.852;20.632;2022-07-23T00:40:17;46.75;36.75;24.75
21358;PMS7003;13506;50.852;20.632;2022-07-23T00:42:45;46.00;36.75;25.50
21358;PMS7003;13506;50.852;20.632;2022-07-23T00:45:13;45.75;36.50;24.25
21358;PMS7003;13506;50.852;20.632;2022-07-23T00:47:40;40.25;35.25;23.25
21358;PMS7003;13506;50.852;20.632;2022-07-23T00:50:08;44.00;37.00;25.00
21358;PMS7003;13506;50.852;20.632;2022-07-23T00:52:37;46.25;37.50;25.00
21358;PMS7003;13506;50.852;20.632;2022-07-23T00:55:08;45.50;37.50;25.50
21358;PMS7003;13506;50.852;20.632;2022-07-23T00:57:37;51.25;39.00;25.25
21358;PMS7003;13506;50.852;20.632;2022-07-23T01:00:07;45.25;37.25;25.25
21358;PMS7003;13506;50.852;20.632;2022-07-23T01:02:38;45.50;36.75;24.50
21358;PMS7003;13506;50.852;20.632;2022-07-23T01:05:07;45.75;38.50;24.50
21358;PMS7003;13506;50.852;20.632;2022-07-23T01:07:35;47.50;38.75;25.50
21358;PMS7003;13506;50.852;20.632;2022-07-23T01:10:03;44.00;36.50;23.50
21358;PMS7003;13506;50.852;20.632;2022-07-23T01:12:52;44.75;37.50;25.25
21358;PMS7003;13506;50.852;20.632;2022-07-23T01:15:21;48.50;39.25;25.75
21358;PMS7003;13506;50.852;20.632;2022-07-23T01:17:49;44.25;36.00;24.50
21358;PMS7003;13506;50.852;20.632;2022-07-23T01:20:17;47.25;39.00;24.75
21358;PMS7003;13506;50.852;20.632;2022-07-23T01:22:46;46.50;37.75;24.00
21358;PMS7003;13506;50.852;20.632;2022-07-23T01:25:15;48.25;39.00;24.50
21358;PMS7003;13506;50.852;20.632;2022-07-23T01:27:52;44.25;36.25;23.00
21358;PMS7003;13506;50.852;20.632;2022-07-23T01:30:20;46.25;36.75;23.75
21358;PMS7003;13506;50.852;20.632;2022-07-23T01:32:48;47.00;37.50;24.75
21358;PMS7003;13506;50.852;20.632;2022-07-23T01:35:16;51.50;40.50;26.50
21358;PMS7003;13506;50.852;20.632;2022-07-23T01:37:47;46.00;38.00;25.50
21358;PMS7003;13506;50.852;20.632;2022-07-23T01:40:17;46.25;36.25;24.00
21358;PMS7003;13506;50.852;20.632;2022-07-23T01:42:46;44.75;39.00;25.25
21358;PMS7003;13506;50.852;20.632;2022-07-23T01:45:14;48.25;38.25;25.25
21358;PMS7003;13506;50.852;20.632;2022-07-23T01:47:46;44.50;34.00;22.75
21358;PMS7003;13506;50.852;20.632;2022-07-23T01:50:14;46.50;39.25;26.00
21358;PMS7003;13506;50.852;20.632;2022-07-23T01:53:13;45.75;37.50;23.75
21358;PMS7003;13506;50.852;20.632;2022-07-23T01:55:41;42.75;36.25;24.50
21358;PMS7003;13506;50.852;20.632;2022-07-23T01:58:10;48.75;38.50;25.00
21358;PMS7003;13506;50.852;20.632;2022-07-23T02:00:38;45.00;35.75;24.25
21358;PMS7003;13506;50.852;20.632;2022-07-23T02:03:05;47.75;38.00;24.75
21358;PMS7003;13506;50.852;20.632;2022-07-23T02:05:34;42.75;35.25;24.25
21358;PMS7003;13506;50.852;20.632;2022-07-23T02:08:03;46.75;38.00;24.75
21358;PMS7003;13506;50.852;20.632;2022-07-23T02:10:35;48.75;38.75;26.00
21358;PMS7003;13506;50.852;20.632;2022-07-23T02:13:03;43.75;35.50;24.75
21358;PMS7003;13506;50.852;20.632;2022-07-23T02:15:31;44.25;37.75;25.00
21358;PMS7003;13506;50.852;20.632;2022-07-23T02:17:59;51.00;40.00;26.00
21358;PMS7003;13506;50.852;20.632;2022-07-23T02:20:27;48.00;37.75;25.00
21358;PMS7003;13506;50.852;20.632;2022-07-23T02:22:54;47.00;36.50;23.50
21358;PMS7003;13506;50.852;20.632;2022-07-23T02:25:22;47.00;37.00;24.50
21358;PMS7003;13506;50.852;20.632;2022-07-23T02:27:53;44.00;36.25;24.50
21358;PMS7003;13506;50.852;20.632;2022-07-23T02:30:21;47.50;39.00;25.50
21358;PMS7003;13506;50.852;20.632;2022-07-23T02:32:49;46.75;39.25;25.75
21358;PMS7003;13506;50.852;20.632;2022-07-23T02:35:17;47.25;39.00;26.00
21358;PMS7003;13506;50.852;20.632;2022-07-23T02:37:45;47.00;38.75;26.75
21358;PMS7003;13506;50.852;20.632;2022-07-23T02:40:12;51.75;42.25;27.75
21358;PMS7003;13506;50.852;20.632;2022-07-23T02:42:41;46.00;38.25;26.50
21358;PMS7003;13506;50.852;20.632;2022-07-23T02:45:11;47.75;37.50;25.75
21358;PMS7003;13506;50.852;20.632;2022-07-23T02:47:39;47.75;38.75;25.50
21358;PMS7003;13506;50.852;20.632;2022-07-23T02:50:08;47.00;39.00;26.50
21358;PMS7003;13506;50.852;20.632;2022-07-23T02:52:38;47.00;39.00;26.25
21358;PMS7003;13506;50.852;20.632;2022-07-23T02:55:06;52.75;41.50;26.50
21358;PMS7003;13506;50.852;20.632;2022-07-23T02:57:34;46.00;38.50;26.00
21358;PMS7003;13506;50.852;20.632;2022-07-23T03:00:03;50.00;41.00;26.75
21358;PMS7003;13506;50.852;20.632;2022-07-23T03:02:34;47.50;39.00;26.00
21358;PMS7003;13506;50.852;20.632;2022-07-23T03:05:02;51.75;40.75;26.75
21358;PMS7003;13506;50.852;20.632;2022-07-23T03:07:30;47.75;39.00;25.50
21358;PMS7003;13506;50.852;20.632;2022-07-23T03:09:58;48.00;39.25;25.75
21358;PMS7003;13506;50.852;20.632;2022-07-23T03:12:25;47.25;39.25;26.75
21358;PMS7003;13506;50.852;20.632;2022-07-23T03:14:53;49.75;39.75;26.00
21358;PMS7003;13506;50.852;20.632;2022-07-23T03:17:21;51.50;40.75;26.75
21358;PMS7003;13506;50.852;20.632;2022-07-23T03:19:50;48.00;37.25;25.75
21358;PMS7003;13506;50.852;20.632;2022-07-23T03:22:17;50.00;41.00;26.50
21358;PMS7003;13506;50.852;20.632;2022-07-23T03:24:46;52.00;42.00;26.75
21358;PMS7003;13506;50.852;20.632;2022-07-23T03:27:23;51.00;41.25;26.75
21358;PMS7003;13506;50.852;20.632;2022-07-23T03:29:54;52.00;41.50;27.50
21358;PMS7003;13506;50.852;20.632;2022-07-23T03:32:24;52.75;41.50;27.75
21358;PMS7003;13506;50.852;20.632;2022-07-23T03:34:54;49.50;41.00;26.75
21358;PMS7003;13506;50.852;20.632;2022-07-23T03:37:21;53.25;41.50;26.75
21358;PMS7003;13506;50.852;20.632;2022-07-23T03:39:49;51.75;40.50;26.75
21358;PMS7003;13506;50.852;20.632;2022-07-23T03:42:16;50.25;41.25;27.25
21358;PMS7003;13506;50.852;20.632;2022-07-23T03:44:45;51.25;40.00;27.00
21358;PMS7003;13506;50.852;20.632;2022-07-23T03:47:13;50.50;43.00;27.00
21358;PMS7003;13506;50.852;20.632;2022-07-23T03:49:43;46.75;39.50;25.75
21358;PMS7003;13506;50.852;20.632;2022-07-23T03:52:12;47.25;38.50;26.00
21358;PMS7003;13506;50.852;20.632;2022-07-23T03:54:39;49.50;40.50;26.75
21358;PMS7003;13506;50.852;20.632;2022-07-23T03:57:07;49.75;40.00;25.75
21358;PMS7003;13506;50.852;20.632;2022-07-23T03:59:34;47.75;39.75;25.25
21358;PMS7003;13506;50.852;20.632;2022-07-23T04:02:01;53.50;41.50;28.00
21358;PMS7003;13506;50.852;20.632;2022-07-23T04:04:29;50.75;41.25;26.00
21358;PMS7003;13506;50.852;20.632;2022-07-23T04:06:57;48.50;40.00;27.50
21358;PMS7003;13506;50.852;20.632;2022-07-23T04:09:26;52.75;41.00;26.75
21358;PMS7003;13506;50.852;20.632;2022-07-23T04:11:53;48.00;38.50;26.00
21358;PMS7003;13506;50.852;20.632;2022-07-23T04:14:21;48.75;39.00;25.75
21358;PMS7003;13506;50.852;20.632;2022-07-23T04:16:49;52.00;40.75;26.75
21358;PMS7003;13506;50.852;20.632;2022-07-23T04:19:16;48.25;38.25;26.00
21358;PMS7003;13506;50.852;20.632;2022-07-23T04:21:54;51.75;41.50;27.50
21358;PMS7003;13506;50.852;20.632;2022-07-23T04:24:21;49.25;40.25;26.25
21358;PMS7003;13506;50.852;20.632;2022-07-23T04:26:50;48.50;39.50;27.00
21358;PMS7003;13506;50.852;20.632;2022-07-23T04:29:19;53.25;42.00;27.25
21358;PMS7003;13506;50.852;20.632;2022-07-23T04:31:46;52.25;39.75;26.25
21358;PMS7003;13506;50.852;20.632;2022-07-23T04:34:14;50.25;41.50;26.75
21358;PMS7003;13506;50.852;20.632;2022-07-23T04:36:42;50.75;41.75;28.25
21358;PMS7003;13506;50.852;20.632;2022-07-23T04:39:09;53.00;42.00;28.50
21358;PMS7003;13506;50.852;20.632;2022-07-23T04:41:37;50.25;41.00;27.25
21358;PMS7003;13506;50.852;20.632;2022-07-23T04:44:06;55.25;43.50;28.50
21358;PMS7003;13506;50.852;20.632;2022-07-23T04:46:34;53.25;42.50;27.50
21358;PMS7003;13506;50.852;20.632;2022-07-23T04:49:02;52.50;40.50;27.00
21358;PMS7003;13506;50.852;20.632;2022-07-23T04:51:29;50.75;42.00;26.75
21358;PMS7003;13506;50.852;20.632;2022-07-23T04:53:57;49.25;39.00;25.50
21358;PMS7003;13506;50.852;20.632;2022-07-23T04:56:24;45.50;37.50;26.25
21358;PMS7003;13506;50.852;20.632;2022-07-23T04:58:52;49.25;38.25;26.25
21358;PMS7003;13506;50.852;20.632;2022-07-23T05:01:21;49.00;38.50;25.75
21358;PMS7003;13506;50.852;20.632;2022-07-23T05:03:49;44.50;38.00;23.75
21358;PMS7003;13506;50.852;20.632;2022-07-23T05:06:17;44.50;37.25;24.25
21358;PMS7003;13506;50.852;20.632;2022-07-23T05:08:46;46.25;38.00;25.00
21358;PMS7003;13506;50.852;20.632;2022-07-23T05:11:14;46.50;38.75;25.00
21358;PMS7003;13506;50.852;20.632;2022-07-23T05:13:42;51.00;40.25;24.75
21358;PMS7003;13506;50.852;20.632;2022-07-23T05:16:10;51.25;40.75;27.00
21358;PMS7003;13506;50.852;20.632;2022-07-23T05:18:38;47.75;38.75;26.00
21358;PMS7003;13506;50.852;20.632;2022-07-23T05:21:06;52.75;43.00;27.50
21358;PMS7003;13506;50.852;20.632;2022-07-23T05:23:34;50.25;40.75;26.25
21358;PMS7003;13506;50.852;20.632;2022-07-23T05:26:02;54.50;43.00;28.00
21358;PMS7003;13506;50.852;20.632;2022-07-23T05:28:31;52.25;41.00;26.50
21358;PMS7003;13506;50.852;20.632;2022-07-23T05:30:59;59.25;46.00;30.00
21358;PMS7003;13506;50.852;20.632;2022-07-23T05:33:27;60.50;47.50;31.25
21358;PMS7003;13506;50.852;20.632;2022-07-23T05:36:00;64.00;48.50;31.00
21358;PMS7003;13506;50.852;20.632;2022-07-23T05:38:31;62.75;47.50;30.50
21358;PMS7003;13506;50.852;20.632;2022-07-23T05:41:01;60.75;48.25;31.50
21358;PMS7003;13506;50.852;20.632;2022-07-23T05:43:29;60.25;46.75;31.50
21358;PMS7003;13506;50.852;20.632;2022-07-23T05:46:00;57.50;45.25;29.75
21358;PMS7003;13506;50.852;20.632;2022-07-23T05:48:28;56.25;43.00;27.75
21358;PMS7003;13506;50.852;20.632;2022-07-23T05:51:03;56.00;45.00;29.25
21358;PMS7003;13506;50.852;20.632;2022-07-23T05:53:32;53.75;42.75;28.00
21358;PMS7003;13506;50.852;20.632;2022-07-23T05:56:04;53.75;41.25;26.75
21358;PMS7003;13506;50.852;20.632;2022-07-23T05:58:32;47.50;38.00;25.75
21358;PMS7003;13506;50.852;20.632;2022-07-23T06:01:01;49.50;40.00;26.00
21358;PMS7003;13506;50.852;20.632;2022-07-23T06:03:36;49.25;39.50;25.75
21358;PMS7003;13506;50.852;20.632;2022-07-23T06:06:06;48.75;40.75;25.75
21358;PMS7003;13506;50.852;20.632;2022-07-23T06:08:35;48.00;37.75;24.25
21358;PMS7003;13506;50.852;20.632;2022-07-23T06:11:03;43.50;33.75;22.75
21358;PMS7003;13506;50.852;20.632;2022-07-23T06:13:30;44.75;35.00;23.00
21358;PMS7003;13506;50.852;20.632;2022-07-23T06:15:58;44.25;37.25;24.00
21358;PMS7003;13506;50.852;20.632;2022-07-23T06:18:26;45.75;37.25;24.25
21358;PMS7003;13506;50.852;20.632;2022-07-23T06:20:53;46.50;38.00;24.75
21358;PMS7003;13506;50.852;20.632;2022-07-23T06:23:22;49.00;37.50;24.00
21358;PMS7003;13506;50.852;20.632;2022-07-23T06:25:50;46.25;38.00;25.00
21358;PMS7003;13506;50.852;20.632;2022-07-23T06:28:19;44.75;36.00;24.25
21358;PMS7003;13506;50.852;20.632;2022-07-23T06:30:46;44.00;35.25;23.75
21358;PMS7003;13506;50.852;20.632;2022-07-23T06:33:15;46.00;36.75;23.25
21358;PMS7003;13506;50.852;20.632;2022-07-23T06:35:43;38.75;32.50;22.00
21358;PMS7003;13506;50.852;20.632;2022-07-23T06:38:11;45.50;35.25;23.50
21358;PMS7003;13506;50.852;20.632;2022-07-23T06:40:42;43.25;34.00;23.00
21358;PMS7003;13506;50.852;20.632;2022-07-23T06:43:10;43.25;33.75;23.50
21358;PMS7003;13506;50.852;20.632;2022-07-23T06:45:38;41.75;34.00;21.50
21358;PMS7003;13506;50.852;20.632;2022-07-23T06:48:05;40.75;33.00;22.25
21358;PMS7003;13506;50.852;20.632;2022-07-23T06:50:33;39.00;34.00;22.00
21358;PMS7003;13506;50.852;20.632;2022-07-23T06:53:01;39.25;31.00;21.00
21358;PMS7003;13506;50.852;20.632;2022-07-23T06:55:30;43.00;34.50;22.50
21358;PMS7003;13506;50.852;20.632;2022-07-23T06:57:59;38.50;32.25;21.75
21358;PMS7003;13506;50.852;20.632;2022-07-23T07:00:26;37.75;32.00;21.25
21358;PMS7003;13506;50.852;20.632;2022-07-23T07:02:54;36.50;30.25;20.75
21358;PMS7003;13506;50.852;20.632;2022-07-23T07:05:21;36.25;31.00;20.25
21358;PMS7003;13506;50.852;20.632;2022-07-23T07:07:50;40.50;33.00;21.00
21358;PMS7003;13506;50.852;20.632;2022-07-23T07:10:18;33.50;29.25;19.00
21358;PMS7003;13506;50.852;20.632;2022-07-23T07:12:47;58.75;44.75;30.00
21358;PMS7003;13506;50.852;20.632;2022-07-23T07:15:16;39.50;32.75;21.75
21358;PMS7003;13506;50.852;20.632;2022-07-23T07:17:43;29.75;26.00;18.00
21358;PMS7003;13506;50.852;20.632;2022-07-23T07:20:11;28.75;27.25;18.75
21358;PMS7003;13506;50.852;20.632;2022-07-23T07:22:38;27.75;25.50;18.00
21358;PMS7003;13506;50.852;20.632;2022-07-23T07:25:06;24.50;23.00;16.50
21358;PMS7003;13506;50.852;20.632;2022-07-23T07:27:34;27.25;25.50;16.50
21358;PMS7003;13506;50.852;20.632;2022-07-23T07:30:02;27.00;25.00;16.00
21358;PMS7003;13506;50.852;20.632;2022-07-23T07:32:33;27.50;25.25;16.50
21358;PMS7003;13506;50.852;20.632;2022-07-23T07:35:02;23.50;22.50;15.50
21358;PMS7003;13506;50.852;20.632;2022-07-23T07:37:29;30.50;27.00;16.75
21358;PMS7003;13506;50.852;20.632;2022-07-23T07:39:57;29.25;27.50;17.50
21358;PMS7003;13506;50.852;20.632;2022-07-23T07:42:26;26.75;25.50;17.25
21358;PMS7003;13506;50.852;20.632;2022-07-23T07:44:53;30.75;27.25;18.25
21358;PMS7003;13506;50.852;20.632;2022-07-23T07:47:21;30.25;25.50;17.50
21358;PMS7003;13506;50.852;20.632;2022-07-23T07:49:50;28.25;26.50;17.25
21358;PMS7003;13506;50.852;20.632;2022-07-23T07:52:17;28.50;26.00;18.00
21358;PMS7003;13506;50.852;20.632;2022-07-23T07:54:45;30.50;27.00;17.50
21358;PMS7003;13506;50.852;20.632;2022-07-23T07:57:12;28.25;27.00;17.50
21358;PMS7003;13506;50.852;20.632;2022-07-23T07:59:40;33.00;27.00;18.50
21358;PMS7003;13506;50.852;20.632;2022-07-23T08:02:08;26.75;25.50;16.75
21358;PMS7003;13506;50.852;20.632;2022-07-23T08:04:36;29.00;28.00;19.25
21358;PMS7003;13506;50.852;20.632;2022-07-23T08:07:04;27.50;24.75;16.75
21358;PMS7003;13506;50.852;20.632;2022-07-23T08:09:32;28.25;26.00;17.25
21358;PMS7003;13506;50.852;20.632;2022-07-23T08:12:00;32.75;28.00;17.25
21358;PMS7003;13506;50.852;20.632;2022-07-23T08:14:27;31.75;28.50;19.50
21358;PMS7003;13506;50.852;20.632;2022-07-23T08:16:54;28.75;25.00;17.25
21358;PMS7003;13506;50.852;20.632;2022-07-23T08:19:22;30.50;26.75;17.75
21358;PMS7003;13506;50.852;20.632;2022-07-23T08:21:50;27.50;23.75;17.50
21358;PMS7003;13506;50.852;20.632;2022-07-23T08:24:19;29.50;27.00;17.25
21358;PMS7003;13506;50.852;20.632;2022-07-23T08:26:47;27.25;24.00;16.50
21358;PMS7003;13506;50.852;20.632;2022-07-23T08:29:15;23.00;21.50;15.25
21358;PMS7003;13506;50.852;20.632;2022-07-23T08:31:42;22.25;21.75;13.50
21358;PMS7003;13506;50.852;20.632;2022-07-23T08:34:10;26.50;22.50;15.00
21358;PMS7003;13506;50.852;20.632;2022-07-23T08:36:38;25.75;24.50;16.25
21358;PMS7003;13506;50.852;20.632;2022-07-23T08:39:06;25.50;24.50;16.25
21358;PMS7003;13506;50.852;20.632;2022-07-23T08:41:35;24.50;22.25;14.50
21358;PMS7003;13506;50.852;20.632;2022-07-23T08:44:06;22.50;19.75;14.00
21358;PMS7003;13506;50.852;20.632;2022-07-23T08:46:34;29.00;26.00;17.25
21358;PMS7003;13506;50.852;20.632;2022-07-23T08:49:05;26.50;23.50;16.50
21358;PMS7003;13506;50.852;20.632;2022-07-23T08:51:33;28.25;25.50;17.25
21358;PMS7003;13506;50.852;20.632;2022-07-23T08:54:01;26.00;25.00;17.25
21358;PMS7003;13506;50.852;20.632;2022-07-23T08:56:29;29.25;26.00;16.00
21358;PMS7003;13506;50.852;20.632;2022-07-23T08:58:58;23.75;22.25;14.75
21358;PMS7003;13506;50.852;20.632;2022-07-23T09:01:26;23.50;22.75;15.00
21358;PMS7003;13506;50.852;20.632;2022-07-23T09:03:53;23.25;23.25;16.00
21358;PMS7003;13506;50.852;20.632;2022-07-23T09:06:20;25.75;23.50;16.75
21358;PMS7003;13506;50.852;20.632;2022-07-23T09:08:48;23.00;22.25;15.25
21358;PMS7003;13506;50.852;20.632;2022-07-23T09:11:16;27.75;23.00;15.75
21358;PMS7003;13506;50.852;20.632;2022-07-23T09:13:45;27.25;27.00;18.00
21358;PMS7003;13506;50.852;20.632;2022-07-23T09:16:16;23.75;23.50;15.50
21358;PMS7003;13506;50.852;20.632;2022-07-23T09:18:46;26.25;25.25;15.25
21358;PMS7003;13506;50.852;20.632;2022-07-23T09:21:19;24.25;21.25;15.25
21358;PMS7003;13506;50.852;20.632;2022-07-23T09:23:55;25.50;23.50;16.50
21358;PMS7003;13506;50.852;20.632;2022-07-23T09:26:29;25.00;23.75;17.00
21358;PMS7003;13506;50.852;20.632;2022-07-23T09:29:02;26.75;24.50;16.00
21358;PMS7003;13506;50.852;20.632;2022-07-23T09:31:44;26.50;25.50;17.00
21358;PMS7003;13506;50.852;20.632;2022-07-23T09:34:17;24.50;23.50;16.25
21358;PMS7003;13506;50.852;20.632;2022-07-23T09:36:47;27.75;26.25;17.00
21358;PMS7003;13506;50.852;20.632;2022-07-23T09:39:24;26.50;25.25;14.50
21358;PMS7003;13506;50.852;20.632;2022-07-23T09:41:54;29.50;26.50;17.25
21358;PMS7003;13506;50.852;20.632;2022-07-23T09:44:22;24.00;24.00;16.25
21358;PMS7003;13506;50.852;20.632;2022-07-23T09:46:52;30.25;25.25;16.00
21358;PMS7003;13506;50.852;20.632;2022-07-23T09:49:26;25.00;24.00;15.00
21358;PMS7003;13506;50.852;20.632;2022-07-23T09:51:56;23.50;21.50;15.00
21358;PMS7003;13506;50.852;20.632;2022-07-23T09:54:27;25.00;24.50;16.25
21358;PMS7003;13506;50.852;20.632;2022-07-23T09:57:00;22.75;21.25;14.50
21358;PMS7003;13506;50.852;20.632;2022-07-23T09:59:34;24.00;22.25;14.50
21358;PMS7003;13506;50.852;20.632;2022-07-23T10:02:05;24.00;21.75;15.50
21358;PMS7003;13506;50.852;20.632;2022-07-23T10:04:45;23.00;22.25;15.25
21358;PMS7003;13506;50.852;20.632;2022-07-23T10:07:24;24.00;23.50;16.25
21358;PMS7003;13506;50.852;20.632;2022-07-23T10:10:13;24.75;23.00;15.00
21358;PMS7003;13506;50.852;20.632;2022-07-23T10:13:01;24.25;23.00;15.00
21358;PMS7003;13506;50.852;20.632;2022-07-23T10:15:52;21.75;20.25;13.25
21358;PMS7003;13506;50.852;20.632;2022-07-23T10:18:22;23.25;22.50;12.50
21358;PMS7003;13506;50.852;20.632;2022-07-23T10:20:50;25.75;25.00;15.75
21358;PMS7003;13506;50.852;20.632;2022-07-23T10:23:19;23.00;23.00;17.00
21358;PMS7003;13506;50.852;20.632;2022-07-23T10:25:56;21.50;21.00;15.25
21358;PMS7003;13506;50.852;20.632;2022-07-23T10:28:44;21.00;21.00;15.50
21358;PMS7003;13506;50.852;20.632;2022-07-23T10:31:30;22.00;21.25;15.75
21358;PMS7003;13506;50.852;20.632;2022-07-23T10:34:17;29.25;26.50;17.75
21358;PMS7003;13506;50.852;20.632;2022-07-23T10:36:53;29.25;28.50;19.25
21358;PMS7003;13506;50.852;20.632;2022-07-23T10:39:30;27.75;26.50;17.25
21358;PMS7003;13506;50.852;20.632;2022-07-23T10:42:09;26.25;24.00;16.50
21358;PMS7003;13506;50.852;20.632;2022-07-23T10:44:39;27.00;25.00;16.25
21358;PMS7003;13506;50.852;20.632;2022-07-23T10:47:09;31.75;27.50;17.00
21358;PMS7003;13506;50.852;20.632;2022-07-23T10:50:17;29.00;26.25;16.25
21358;PMS7003;13506;50.852;20.632;2022-07-23T10:55:43;26.50;24.00;18.25
21358;PMS7003;13506;50.852;20.632;2022-07-23T10:58:18;29.00;25.75;18.00
21358;PMS7003;13506;50.852;20.632;2022-07-23T11:00:48;28.25;25.75;17.25
21358;PMS7003;13506;50.852;20.632;2022-07-23T11:03:29;22.00;21.50;15.50
21358;PMS7003;13506;50.852;20.632;2022-07-23T11:06:03;24.75;24.50;17.00
21358;PMS7003;13506;50.852;20.632;2022-07-23T11:08:32;27.50;25.75;17.75
21358;PMS7003;13506;50.852;20.632;2022-07-23T11:11:10;27.75;25.50;17.50
21358;PMS7003;13506;50.852;20.632;2022-07-23T11:13:39;23.50;23.00;15.00
21358;PMS7003;13506;50.852;20.632;2022-07-23T11:16:17;26.00;24.50;17.25
21358;PMS7003;13506;50.852;20.632;2022-07-23T11:21:47;24.50;22.75;16.25
21358;PMS7003;13506;50.852;20.632;2022-07-23T11:24:21;36.00;31.25;20.50
21358;PMS7003;13506;50.852;20.632;2022-07-23T11:27:00;40.50;32.25;21.25
21358;PMS7003;13506;50.852;20.632;2022-07-23T11:29:41;31.50;29.50;20.00
21358;PMS7003;13506;50.852;20.632;2022-07-23T11:35:18;27.75;24.75;18.25
21358;PMS7003;13506;50.852;20.632;2022-07-23T11:37:49;25.50;21.75;16.25
21358;PMS7003;13506;50.852;20.632;2022-07-23T11:40:24;27.75;24.50;15.25
21358;PMS7003;13506;50.852;20.632;2022-07-23T11:42:54;28.50;23.75;17.75
21358;PMS7003;13506;50.852;20.632;2022-07-23T11:45:29;23.50;21.50;16.25
21358;PMS7003;13506;50.852;20.632;2022-07-23T11:47:59;26.25;24.50;16.00
21358;PMS7003;13506;50.852;20.632;2022-07-23T11:50:27;23.25;22.00;15.00
21358;PMS7003;13506;50.852;20.632;2022-07-23T11:52:56;24.25;24.00;16.75
21358;PMS7003;13506;50.852;20.632;2022-07-23T11:55:24;25.25;23.50;15.75
21358;PMS7003;13506;50.852;20.632;2022-07-23T11:57:54;23.50;22.25;15.50
21358;PMS7003;13506;50.852;20.632;2022-07-23T12:00:23;24.50;23.25;16.00
21358;PMS7003;13506;50.852;20.632;2022-07-23T12:02:53;24.75;24.50;15.50
21358;PMS7003;13506;50.852;20.632;2022-07-23T12:05:27;23.00;22.25;14.50
21358;PMS7003;13506;50.852;20.632;2022-07-23T12:07:58;24.75;22.50;16.00
21358;PMS7003;13506;50.852;20.632;2022-07-23T12:10:29;23.75;23.25;17.25
21358;PMS7003;13506;50.852;20.632;2022-07-23T12:13:00;24.50;23.75;17.00
21358;PMS7003;13506;50.852;20.632;2022-07-23T12:15:32;29.25;26.00;18.00
21358;PMS7003;13506;50.852;20.632;2022-07-23T12:18:04;28.00;25.50;18.25
21358;PMS7003;13506;50.852;20.632;2022-07-23T12:20:35;25.25;22.50;16.00
21358;PMS7003;13506;50.852;20.632;2022-07-23T12:23:07;22.75;22.75;15.50
21358;PMS7003;13506;50.852;20.632;2022-07-23T12:25:39;23.00;21.75;14.50
21358;PMS7003;13506;50.852;20.632;2022-07-23T12:28:09;28.25;23.50;15.75
21358;PMS7003;13506;50.852;20.632;2022-07-23T12:30:41;22.00;20.00;14.50
21358;PMS7003;13506;50.852;20.632;2022-07-23T12:33:12;22.00;19.50;13.75
21358;PMS7003;13506;50.852;20.632;2022-07-23T12:35:48;21.50;18.75;12.25
21358;PMS7003;13506;50.852;20.632;2022-07-23T12:38:18;25.75;24.00;15.25
21358;PMS7003;13506;50.852;20.632;2022-07-23T12:40:48;25.00;21.25;14.00
21358;PMS7003;13506;50.852;20.632;2022-07-23T12:43:20;20.25;20.00;13.25
21358;PMS7003;13506;50.852;20.632;2022-07-23T12:45:52;23.00;22.00;15.25
21358;PMS7003;13506;50.852;20.632;2022-07-23T12:48:22;23.25;22.25;15.50
21358;PMS7003;13506;50.852;20.632;2022-07-23T12:50:52;23.00;22.75;15.00
21358;PMS7003;13506;50.852;20.632;2022-07-23T12:53:26;18.00;18.00;12.50
21358;PMS7003;13506;50.852;20.632;2022-07-23T12:55:59;20.00;19.75;14.25
21358;PMS7003;13506;50.852;20.632;2022-07-23T12:58:42;24.00;22.75;14.50
21358;PMS7003;13506;50.852;20.632;2022-07-23T13:01:22;22.50;21.25;14.75
21358;PMS7003;13506;50.852;20.632;2022-07-23T13:03:55;23.75;22.00;16.25
21358;PMS7003;13506;50.852;20.632;2022-07-23T13:06:27;24.50;23.00;16.50
21358;PMS7003;13506;50.852;20.632;2022-07-23T13:08:57;25.00;22.25;16.00
21358;PMS7003;13506;50.852;20.632;2022-07-23T13:11:25;25.25;23.00;13.75
21358;PMS7003;13506;50.852;20.632;2022-07-23T13:13:53;25.00;22.25;15.00
21358;PMS7003;13506;50.852;20.632;2022-07-23T13:16:20;23.50;22.00;16.00
21358;PMS7003;13506;50.852;20.632;2022-07-23T13:18:48;25.00;23.25;15.75
21358;PMS7003;13506;50.852;20.632;2022-07-23T13:21:16;25.75;24.00;16.50
21358;PMS7003;13506;50.852;20.632;2022-07-23T13:23:44;28.75;24.50;17.50
21358;PMS7003;13506;50.852;20.632;2022-07-23T13:26:13;24.00;22.75;16.00
21358;PMS7003;13506;50.852;20.632;2022-07-23T13:28:41;25.75;23.75;16.00
21358;PMS7003;13506;50.852;20.632;2022-07-23T13:31:10;25.50;25.50;16.25
21358;PMS7003;13506;50.852;20.632;2022-07-23T13:33:37;25.75;22.00;15.00
21358;PMS7003;13506;50.852;20.632;2022-07-23T13:36:05;21.25;19.50;13.50
21358;PMS7003;13506;50.852;20.632;2022-07-23T13:38:33;27.50;25.75;17.25
21358;PMS7003;13506;50.852;20.632;2022-07-23T13:41:01;22.75;21.75;14.25
21358;PMS7003;13506;50.852;20.632;2022-07-23T13:43:31;21.75;21.75;15.75
21358;PMS7003;13506;50.852;20.632;2022-07-23T13:45:59;20.75;20.25;13.50
21358;PMS7003;13506;50.852;20.632;2022-07-23T13:48:27;24.25;23.50;16.25
21358;PMS7003;13506;50.852;20.632;2022-07-23T13:50:55;24.50;22.50;15.75
21358;PMS7003;13506;50.852;20.632;2022-07-23T13:53:23;25.25;22.25;16.00
21358;PMS7003;13506;50.852;20.632;2022-07-23T13:55:51;24.00;21.75;15.75
21358;PMS7003;13506;50.852;20.632;2022-07-23T13:58:20;23.00;22.00;14.75